Time;durP1;ratioP1;P1;durP2;ratioP2;P2;SDS_P1;SDS_P2;PMS_P1;PMS_P2;Temp;Humidity;BMP_temperature;BMP_pressure;BME280_temperature;BME280_humidity;BME280_pressure;Samples;Min_cycle;Max_cycle;Signal;HPM_P1;HPM_P2
2023/01/04 00:01:33;;;;;;;19.80;8.80;;;;;;;3.54;75.18;101705.90;108869;1255;36710;-73
2023/01/04 00:04:06;;;;;;;15.80;9.40;;;;;;;3.52;75.10;101705.20;108778;1250;172806;-75
2023/01/04 00:06:38;;;;;;;16.10;8.40;;;;;;;3.49;75.04;101707.40;108807;1258;36359;-74
2023/01/04 00:09:10;;;;;;;15.20;9.00;;;;;;;3.45;74.98;101704.08;108954;1256;36722;-76
2023/01/04 00:11:43;;;;;;;16.40;8.50;;;;;;;3.42;75.13;101707.81;108855;1273;37242;-76
2023/01/04 00:14:17;;;;;;;17.40;9.30;;;;;;;3.40;75.14;101706.58;108930;1250;37087;-76
2023/01/04 00:16:52;;;;;;;17.30;10.00;;;;;;;3.38;75.17;101705.19;108890;1273;37695;-74
2023/01/04 00:19:29;;;;;;;17.60;9.80;;;;;;;3.35;75.10;101699.98;108849;1258;37259;-77
2023/01/04 00:22:10;;;;;;;16.70;9.40;;;;;;;3.33;75.14;101697.36;108873;1273;37277;-77
2023/01/04 00:24:42;;;;;;;18.00;9.80;;;;;;;3.27;74.86;101692.80;108947;1253;37104;-77
2023/01/04 00:27:16;;;;;;;16.00;9.60;;;;;;;3.17;74.95;101691.12;108917;1264;36412;-77
2023/01/04 00:29:47;;;;;;;14.00;9.50;;;;;;;3.10;75.25;101697.23;108956;1273;38403;-76
2023/01/04 00:32:18;;;;;;;18.10;9.30;;;;;;;3.02;74.95;101699.36;108811;1256;172565;-76
2023/01/04 00:34:53;;;;;;;15.80;8.40;;;;;;;2.94;74.92;101706.83;108937;1256;37234;-76
2023/01/04 00:37:26;;;;;;;15.30;9.20;;;;;;;2.86;75.30;101711.19;108906;1255;36972;-76
2023/01/04 00:40:05;;;;;;;18.10;10.00;;;;;;;2.80;75.38;101712.13;108960;1254;36330;-78
2023/01/04 00:42:37;;;;;;;16.90;10.10;;;;;;;2.73;75.58;101713.91;108925;1273;37136;-77
2023/01/04 00:45:10;;;;;;;16.20;9.80;;;;;;;2.65;75.55;101717.07;108919;1262;36980;-76
2023/01/04 00:47:42;;;;;;;19.70;8.90;;;;;;;2.58;76.07;101715.23;108806;1250;175005;-76
2023/01/04 00:50:13;;;;;;;14.70;9.00;;;;;;;2.53;76.13;101718.94;108911;1255;36986;-78
2023/01/04 00:52:45;;;;;;;16.20;10.00;;;;;;;2.50;76.34;101721.99;108918;1250;36961;-78
2023/01/04 00:55:16;;;;;;;15.80;10.00;;;;;;;2.45;76.30;101726.05;108792;1268;172907;-78
2023/01/04 00:57:47;;;;;;;19.00;10.90;;;;;;;2.39;76.37;101734.89;108820;1273;37751;-78
2023/01/04 01:00:19;;;;;;;18.10;10.30;;;;;;;2.33;76.57;101737.18;108881;1253;37184;-77
2023/01/04 01:02:50;;;;;;;18.00;10.00;;;;;;;2.30;76.76;101742.31;108889;1254;38550;-75
2023/01/04 01:05:22;;;;;;;21.50;10.40;;;;;;;2.28;76.78;101745.20;108919;1273;38202;-76
2023/01/04 01:07:55;;;;;;;20.00;11.10;;;;;;;2.26;76.97;101742.07;108780;1253;36286;-77
2023/01/04 01:10:29;;;;;;;21.70;11.20;;;;;;;2.24;76.84;101736.52;108899;1259;37084;-76
2023/01/04 01:13:03;;;;;;;19.00;11.20;;;;;;;2.20;76.99;101738.17;108844;1264;38684;-76
2023/01/04 01:15:36;;;;;;;20.70;12.10;;;;;;;2.16;77.28;101740.51;108908;1273;36133;-77
2023/01/04 01:18:07;;;;;;;21.50;11.50;;;;;;;2.13;77.27;101744.58;108890;1262;37176;-75
2023/01/04 01:20:43;;;;;;;18.10;11.00;;;;;;;2.09;77.48;101743.30;108931;1273;37000;-76
2023/01/04 01:23:19;;;;;;;17.40;11.10;;;;;;;2.08;77.51;101748.10;108914;1255;37116;-76
2023/01/04 01:25:52;;;;;;;21.40;11.40;;;;;;;2.07;77.68;101749.80;108969;1268;36449;-77
2023/01/04 01:28:45;;;;;;;17.20;11.40;;;;;;;2.06;77.69;101749.27;108907;1265;36313;-77
2023/01/04 01:31:21;;;;;;;21.60;12.80;;;;;;;2.05;77.84;101747.02;108897;1256;36839;-76
2023/01/04 01:33:59;;;;;;;23.00;12.80;;;;;;;2.07;78.11;101750.48;108918;1266;37225;-75
2023/01/04 01:36:35;;;;;;;22.30;11.90;;;;;;;2.05;78.11;101745.63;108802;1273;175074;-77
2023/01/04 01:39:10;;;;;;;20.40;12.00;;;;;;;2.04;78.10;101745.45;108918;1264;37120;-76
2023/01/04 01:41:43;;;;;;;19.00;12.10;;;;;;;2.02;78.03;101741.98;108924;1265;36956;-72
2023/01/04 01:45:15;;;;;;;20.10;11.90;;;;;;;2.01;78.15;101734.73;108905;1273;36179;-75
2023/01/04 01:47:53;;;;;;;20.40;12.10;;;;;;;1.95;78.04;101723.77;108816;1257;37493;-76
2023/01/04 01:50:29;;;;;;;22.20;12.60;;;;;;;1.95;78.24;101721.16;108907;1258;39108;-73
2023/01/04 01:53:03;;;;;;;20.70;12.90;;;;;;;1.90;78.23;101723.85;108930;1267;36013;-76
2023/01/04 01:55:41;;;;;;;22.70;13.30;;;;;;;1.85;78.38;101716.18;108960;1264;37109;-77
2023/01/04 01:58:22;;;;;;;20.30;12.00;;;;;;;1.80;78.50;101711.45;108890;1253;37110;-76
2023/01/04 02:00:58;;;;;;;18.60;11.90;;;;;;;1.74;78.38;101712.01;108957;1255;37673;-76
2023/01/04 02:03:32;;;;;;;18.80;12.50;;;;;;;1.70;78.49;101725.86;108958;1264;37224;-74
2023/01/04 02:06:12;;;;;;;22.30;13.70;;;;;;;1.66;78.54;101725.08;108907;1257;36269;-75
2023/01/04 02:08:47;;;;;;;18.70;12.80;;;;;;;1.63;78.71;101728.98;108979;1254;37057;-75
2023/01/04 02:11:20;;;;;;;21.70;14.00;;;;;;;1.60;79.01;101727.70;109007;1254;36648;-77
2023/01/04 02:17:05;;;;;;;20.90;12.60;;;;;;;1.51;78.97;101731.15;109039;1259;36880;-76
2023/01/04 02:20:14;;;;;;;19.30;12.40;;;;;;;1.48;79.23;101729.88;109058;1262;36718;-75
2023/01/04 02:23:37;;;;;;;20.30;12.90;;;;;;;1.46;79.34;101726.22;109016;1250;36993;-75
2023/01/04 02:27:18;;;;;;;20.20;12.30;;;;;;;1.37;79.09;101718.80;108982;1273;37037;-76
2023/01/04 02:30:37;;;;;;;23.00;13.40;;;;;;;1.21;79.01;101718.11;108819;1276;37067;-75
2023/01/04 02:33:23;;;;;;;18.40;11.90;;;;;;;1.09;79.49;101713.04;109054;1256;36147;-74
2023/01/04 02:36:03;;;;;;;19.60;12.40;;;;;;;1.01;79.45;101707.72;109030;1255;37439;-75
2023/01/04 02:38:49;;;;;;;18.70;12.10;;;;;;;0.96;79.74;101702.95;108864;1253;175177;-74
2023/01/04 02:41:27;;;;;;;20.70;12.50;;;;;;;0.93;79.68;101705.98;108914;1273;187544;-75
2023/01/04 02:47:09;;;;;;;20.40;13.30;;;;;;;0.73;79.80;101700.21;109045;1273;37131;-76
2023/01/04 02:52:40;;;;;;;20.90;13.10;;;;;;;0.62;80.00;101696.52;108863;1273;37168;-77
2023/01/04 02:55:15;;;;;;;23.90;12.80;;;;;;;0.56;80.05;101698.92;108939;1263;37010;-77
2023/01/04 02:57:51;;;;;;;23.30;13.90;;;;;;;0.50;80.01;101704.98;108913;1273;37301;-77
2023/01/04 03:06:14;;;;;;;21.60;13.90;;;;;;;0.47;80.31;101698.89;108639;1266;38973;-77
2023/01/04 03:06:32;;;;;;;25.40;15.90;;;;;;;0.42;80.49;101701.19;108924;1251;37376;-75
2023/01/04 03:09:05;;;;;;;;;;;;;;;0.34;80.38;101697.18;108975;1251;36000;-77
2023/01/04 03:14:36;;;;;;;23.40;14.90;;;;;;;0.12;80.49;101688.91;108887;1273;38469;-76
2023/01/04 03:17:15;;;;;;;24.70;14.30;;;;;;;0.04;80.25;101682.86;108992;1256;37809;-76
2023/01/04 03:19:50;;;;;;;20.40;13.40;;;;;;;-0.00;80.45;101675.55;108901;1255;37502;-76
2023/01/04 03:37:07;;;;;;;21.90;12.20;;;;;;;-0.35;81.39;101647.71;108873;1266;37753;-76
2023/01/04 03:48:33;;;;;;;23.00;13.20;;;;;;;-0.50;81.61;101656.90;108992;1273;36721;-74
2023/01/04 03:51:14;;;;;;;23.00;12.90;;;;;;;-0.53;81.71;101653.04;108863;1257;37724;-75
2023/01/04 03:53:55;;;;;;;19.00;12.00;;;;;;;-0.57;81.78;101644.90;108940;1273;36268;-75
2023/01/04 03:56:27;;;;;;;17.40;12.40;;;;;;;-0.60;81.69;101633.32;108882;1251;38454;-73
2023/01/04 03:58:59;;;;;;;20.60;13.20;;;;;;;-0.59;81.86;101633.34;108949;1254;37070;-74
2023/01/04 04:01:32;;;;;;;22.00;13.60;;;;;;;-0.63;82.03;101640.61;108932;1273;38772;-75
2023/01/04 04:09:44;;;;;;;20.10;13.40;;;;;;;-0.76;82.48;101640.91;108873;1273;37636;-75
2023/01/04 04:12:15;;;;;;;20.90;12.10;;;;;;;-0.75;82.67;101641.98;108494;1251;517813;-75
2023/01/04 04:14:47;;;;;;;20.80;13.10;;;;;;;-0.71;83.34;101638.31;108926;1264;36678;-74
2023/01/04 04:17:18;;;;;;;22.60;13.50;;;;;;;-0.69;83.42;101633.41;108864;1264;37234;-76
2023/01/04 04:19:50;;;;;;;24.70;14.30;;;;;;;-0.66;83.42;101630.58;108879;1257;37180;-75
2023/01/04 04:22:21;;;;;;;23.90;15.00;;;;;;;-0.66;83.43;101637.96;108910;1263;37093;-76
2023/01/04 04:24:53;;;;;;;21.20;13.20;;;;;;;-0.65;83.32;101643.27;108887;1261;36286;-76
2023/01/04 04:27:24;;;;;;;18.90;12.80;;;;;;;-0.66;83.26;101639.49;108878;1251;36993;-75
2023/01/04 04:29:56;;;;;;;21.50;12.90;;;;;;;-0.67;83.23;101636.53;108926;1259;37258;-76
2023/01/04 04:32:28;;;;;;;20.40;13.00;;;;;;;-0.69;83.26;101632.53;108954;1263;37059;-76
2023/01/04 04:35:00;;;;;;;20.50;13.90;;;;;;;-0.71;83.36;101633.00;108945;1271;36964;-75
2023/01/04 04:37:33;;;;;;;23.10;14.60;;;;;;;-0.72;83.76;101628.19;108877;1262;36398;-75
2023/01/04 04:40:05;;;;;;;24.10;14.30;;;;;;;-0.72;83.80;101623.37;108849;1264;177139;-73
2023/01/04 04:42:36;;;;;;;22.80;14.10;;;;;;;-0.75;83.52;101625.70;108935;1261;37058;-75
2023/01/04 04:45:11;;;;;;;19.90;12.90;;;;;;;-0.73;83.79;101622.34;108979;1261;37224;-74
2023/01/04 04:47:44;;;;;;;19.80;12.90;;;;;;;-0.69;83.91;101628.09;108975;1256;37662;-74
2023/01/04 04:50:16;;;;;;;22.50;14.00;;;;;;;-0.69;83.84;101628.61;108968;1273;37140;-74
2023/01/04 04:52:47;;;;;;;20.70;14.30;;;;;;;-0.68;83.86;101626.73;108852;1257;37073;-76
2023/01/04 04:55:18;;;;;;;22.40;13.70;;;;;;;-0.71;83.87;101625.98;108930;1273;36076;-75
2023/01/04 04:57:50;;;;;;;22.40;14.30;;;;;;;-0.75;83.94;101629.13;108789;1273;37360;-76
2023/01/04 05:00:21;;;;;;;24.60;13.50;;;;;;;-0.78;84.01;101622.88;108903;1261;37091;-75
2023/01/04 05:02:55;;;;;;;19.00;13.10;;;;;;;-0.81;83.87;101616.44;108892;1267;36259;-75
2023/01/04 05:05:28;;;;;;;23.80;13.30;;;;;;;-0.81;83.68;101622.95;108884;1250;36973;-75
2023/01/04 05:08:06;;;;;;;22.50;13.80;;;;;;;-0.82;83.95;101624.66;108946;1273;38327;-77
2023/01/04 05:10:40;;;;;;;23.60;14.10;;;;;;;-0.82;83.81;101625.51;108914;1273;37571;-76
2023/01/04 05:13:13;;;;;;;27.60;14.60;;;;;;;-0.86;83.70;101626.41;108920;1270;37088;-74
2023/01/04 05:15:47;;;;;;;23.50;14.00;;;;;;;-0.93;83.79;101630.48;108910;1273;36964;-76
2023/01/04 05:18:20;;;;;;;23.80;14.10;;;;;;;-0.95;84.01;101628.90;108902;1260;36980;-74
2023/01/04 05:20:52;;;;;;;22.60;13.90;;;;;;;-0.96;83.92;101625.09;108939;1273;36504;-74
2023/01/04 05:23:24;;;;;;;24.00;13.70;;;;;;;-0.96;83.97;101618.59;108855;1257;36989;-74
2023/01/04 05:25:59;;;;;;;23.40;13.50;;;;;;;-0.98;84.19;101604.49;108955;1254;37217;-75
2023/01/04 05:28:31;;;;;;;20.80;13.70;;;;;;;-1.00;84.18;101600.48;108910;1253;37133;-75
2023/01/04 05:31:04;;;;;;;20.90;13.70;;;;;;;-1.06;84.13;101593.14;108917;1273;37105;-73
2023/01/04 05:33:41;;;;;;;25.90;14.90;;;;;;;-1.08;84.19;101601.45;108915;1273;37042;-74
2023/01/04 05:36:20;;;;;;;22.40;13.50;;;;;;;-1.11;84.17;101600.34;108926;1254;37138;-73
2023/01/04 05:38:51;;;;;;;21.50;12.70;;;;;;;-1.13;84.25;101597.38;108948;1251;37087;-74
2023/01/04 05:44:25;;;;;;;25.90;14.50;;;;;;;-1.17;84.40;101592.98;108579;1264;36769;-74
2023/01/04 05:46:59;;;;;;;23.90;15.40;;;;;;;-1.16;84.34;101587.02;108941;1254;37236;-74
2023/01/04 05:49:31;;;;;;;26.70;14.30;;;;;;;-1.17;84.51;101582.54;108903;1273;37113;-74
2023/01/04 05:52:06;;;;;;;22.60;14.10;;;;;;;-1.16;84.65;101578.96;108948;1251;37080;-76
2023/01/04 05:54:38;;;;;;;22.00;13.00;;;;;;;-1.17;84.65;101581.34;108938;1256;38003;-74
2023/01/04 05:57:09;;;;;;;22.10;13.60;;;;;;;-1.16;84.67;101577.42;108905;1273;37121;-75
2023/01/04 05:59:40;;;;;;;25.10;14.10;;;;;;;-1.17;84.83;101573.45;108941;1269;37017;-76
2023/01/04 06:02:16;;;;;;;26.00;15.70;;;;;;;-1.16;84.61;101579.13;108887;1254;38349;-73
2023/01/04 06:04:49;;;;;;;25.70;16.00;;;;;;;-1.17;84.81;101577.05;108937;1264;37067;-74
2023/01/04 06:07:20;;;;;;;21.00;14.20;;;;;;;-1.20;84.64;101575.40;108862;1273;36973;-74
2023/01/04 06:09:53;;;;;;;24.00;13.30;;;;;;;-1.26;84.52;101575.07;108876;1251;37326;-75
2023/01/04 06:12:25;;;;;;;23.30;13.30;;;;;;;-1.31;84.29;101575.62;108854;1257;37472;-76
2023/01/04 06:14:58;;;;;;;20.80;13.40;;;;;;;-1.34;84.44;101569.04;108901;1254;36219;-73
2023/01/04 06:17:31;;;;;;;25.30;14.60;;;;;;;-1.33;84.60;101562.38;108880;1273;37305;-74
2023/01/04 06:20:03;;;;;;;21.20;14.70;;;;;;;-1.35;84.57;101554.45;108966;1255;37196;-75
2023/01/04 06:22:36;;;;;;;23.80;14.40;;;;;;;-1.37;84.52;101544.62;108902;1254;37371;-73
2023/01/04 06:25:10;;;;;;;25.60;15.60;;;;;;;-1.43;84.41;101541.34;108920;1273;37314;-73
2023/01/04 06:27:42;;;;;;;25.60;14.80;;;;;;;-1.47;84.45;101532.33;108956;1264;36475;-73
2023/01/04 06:30:17;;;;;;;21.30;13.70;;;;;;;-1.50;84.60;101527.80;108961;1257;36973;-76
2023/01/04 06:32:55;;;;;;;21.90;14.30;;;;;;;-1.49;84.55;101526.11;108892;1256;37093;-76
2023/01/04 06:35:28;;;;;;;22.20;14.60;;;;;;;-1.48;84.67;101524.09;108986;1273;38342;-73
2023/01/04 06:38:00;;;;;;;24.00;15.40;;;;;;;-1.49;84.93;101521.51;108917;1273;37154;-73
2023/01/04 06:40:32;;;;;;;26.30;15.60;;;;;;;-1.51;85.17;101525.90;108951;1273;37095;-74
2023/01/04 06:43:03;;;;;;;25.90;16.40;;;;;;;-1.51;84.94;101519.23;108945;1263;37093;-73
2023/01/04 06:45:34;;;;;;;23.80;16.00;;;;;;;-1.48;85.63;101518.27;108995;1264;37341;-73
2023/01/04 06:48:07;;;;;;;23.70;15.60;;;;;;;-1.42;85.57;101519.48;108855;1261;36974;-74
2023/01/04 06:50:41;;;;;;;28.50;15.70;;;;;;;-1.39;85.65;101516.16;108947;1256;37298;-74
2023/01/04 06:53:14;;;;;;;28.30;16.80;;;;;;;-1.33;85.83;101514.09;108929;1264;37196;-76
2023/01/04 06:55:46;;;;;;;28.50;17.20;;;;;;;-1.30;85.84;101515.39;108954;1251;37089;-76
2023/01/04 06:58:17;;;;;;;27.10;16.40;;;;;;;-1.25;85.79;101516.54;108919;1257;37173;-76
2023/01/04 07:00:52;;;;;;;23.70;14.60;;;;;;;-1.24;85.67;101520.69;108925;1273;36310;-77
2023/01/04 07:03:23;;;;;;;27.70;15.70;;;;;;;-1.19;85.80;101521.15;108868;1261;38396;-77
2023/01/04 07:05:55;;;;;;;26.80;17.10;;;;;;;-1.15;85.59;101528.14;108914;1265;37361;-76
2023/01/04 07:08:28;;;;;;;27.20;17.20;;;;;;;-1.14;85.52;101538.45;108851;1254;37044;-74
2023/01/04 07:11:03;;;;;;;26.40;16.70;;;;;;;-1.14;85.38;101544.09;108951;1256;36977;-76
2023/01/04 07:13:34;;;;;;;27.90;15.80;;;;;;;-1.15;85.46;101551.95;108924;1251;37338;-74
2023/01/04 07:16:06;;;;;;;23.70;15.40;;;;;;;-1.16;85.10;101547.12;108942;1258;37197;-73
2023/01/04 07:18:40;;;;;;;23.20;14.80;;;;;;;-1.15;85.11;101541.83;108990;1254;37085;-73
2023/01/04 07:21:15;;;;;;;23.00;15.40;;;;;;;-1.12;85.08;101543.80;108889;1251;37375;-74
2023/01/04 07:23:47;;;;;;;28.00;16.10;;;;;;;-1.07;85.45;101538.14;108932;1251;37278;-74
2023/01/04 07:26:19;;;;;;;24.90;16.60;;;;;;;-1.03;85.29;101530.02;108958;1273;37038;-76
2023/01/04 07:31:44;;;;;;;28.60;16.60;;;;;;;-0.98;85.44;101534.95;108938;1264;37032;-75
2023/01/04 07:34:20;;;;;;;28.10;15.70;;;;;;;-0.97;85.51;101529.14;108854;1253;175218;-72
2023/01/04 07:36:57;;;;;;;29.90;16.50;;;;;;;-0.93;85.33;101526.71;108923;1273;36902;-75
2023/01/04 07:39:43;;;;;;;29.30;16.20;;;;;;;-0.84;85.85;101517.17;109016;1250;37287;-75
2023/01/04 07:42:23;;;;;;;31.30;17.90;;;;;;;-0.75;85.88;101508.52;108893;1273;37377;-75
2023/01/04 07:45:03;;;;;;;33.30;19.10;;;;;;;-0.58;86.55;101505.86;108952;1262;37224;-75
2023/01/04 07:47:37;;;;;;;29.50;18.00;;;;;;;-0.37;86.65;101501.42;108944;1254;37319;-74
2023/01/04 07:50:10;;;;;;;32.00;16.80;;;;;;;-0.11;86.80;101501.19;108842;1255;36996;-73
2023/01/04 07:52:47;;;;;;;29.70;17.90;;;;;;;0.11;86.47;101501.70;108217;1273;914815;-73
2023/01/04 07:55:19;;;;;;;35.00;18.10;;;;;;;0.33;86.53;101494.98;108992;1254;36966;-74
2023/01/04 07:57:53;;;;;;;33.20;19.60;;;;;;;0.45;86.47;101492.33;108918;1261;36413;-75
2023/01/04 08:00:27;;;;;;;34.70;19.80;;;;;;;0.54;85.99;101487.36;108897;1262;36884;-73
2023/01/04 08:02:58;;;;;;;34.20;18.60;;;;;;;0.60;85.76;101476.83;108925;1261;37479;-73
2023/01/04 08:05:33;;;;;;;29.80;18.10;;;;;;;0.62;85.53;101471.55;108864;1251;36075;-74
2023/01/04 08:08:07;;;;;;;29.30;18.00;;;;;;;0.69;85.56;101470.83;108912;1273;37599;-72
2023/01/04 08:10:38;;;;;;;35.90;19.20;;;;;;;0.74;85.59;101470.78;108896;1273;37281;-75
2023/01/04 08:13:09;;;;;;;29.60;18.70;;;;;;;0.80;85.64;101464.88;108948;1257;37022;-73
2023/01/04 08:15:40;;;;;;;31.80;19.40;;;;;;;0.86;85.58;101457.42;108918;1254;37056;-74
2023/01/04 08:18:14;;;;;;;28.10;17.30;;;;;;;0.90;85.31;101452.18;108839;1251;175089;-74
2023/01/04 08:20:45;;;;;;;30.30;17.70;;;;;;;0.91;85.34;101446.02;108884;1273;36961;-74
2023/01/04 08:23:22;;;;;;;28.30;17.70;;;;;;;0.99;85.37;101440.66;108948;1273;37318;-74
2023/01/04 08:26:00;;;;;;;31.50;18.90;;;;;;;1.07;85.31;101446.13;108851;1273;175107;-77
2023/01/04 08:28:32;;;;;;;32.70;19.20;;;;;;;1.13;85.38;101434.39;108878;1254;37143;-75
2023/01/04 08:31:07;;;;;;;32.70;19.80;;;;;;;1.19;85.31;101433.11;109001;1255;36363;-72
2023/01/04 08:36:31;;;;;;;32.50;17.90;;;;;;;1.26;85.19;101432.20;108886;1258;37430;-74
2023/01/04 08:39:07;;;;;;;29.00;18.00;;;;;;;1.33;85.39;101425.27;108962;1249;36889;-74
2023/01/04 08:44:26;;;;;;;32.40;19.30;;;;;;;1.53;85.35;101428.71;108955;1264;37074;-75
2023/01/04 08:47:02;;;;;;;33.70;19.20;;;;;;;1.61;85.37;101430.19;108850;1273;37188;-73
2023/01/04 08:49:45;;;;;;;32.70;18.40;;;;;;;1.74;85.52;101429.19;108951;1264;37066;-72
2023/01/04 08:52:19;;;;;;;27.70;17.00;;;;;;;1.86;85.48;101428.33;108938;1273;38609;-75
2023/01/04 08:54:52;;;;;;;28.40;17.70;;;;;;;2.01;85.49;101421.48;108931;1254;36497;-74
2023/01/04 08:57:23;;;;;;;34.10;19.00;;;;;;;2.17;85.38;101413.80;108931;1264;38457;-72
2023/01/04 08:59:55;;;;;;;31.30;19.60;;;;;;;2.35;85.49;101418.48;108960;1262;37291;-74
2023/01/04 09:02:28;;;;;;;32.80;20.00;;;;;;;2.52;85.37;101416.27;108863;1254;37391;-74
2023/01/04 09:05:02;;;;;;;32.80;20.60;;;;;;;2.68;85.17;101413.71;108836;1254;174626;-75
2023/01/04 09:07:34;;;;;;;33.80;19.80;;;;;;;2.84;84.75;101402.68;108898;1254;38323;-73
2023/01/04 09:10:07;;;;;;;27.50;18.60;;;;;;;3.01;84.57;101393.71;108918;1262;36956;-74
2023/01/04 09:12:38;;;;;;;30.60;19.80;;;;;;;3.21;83.96;101388.70;108856;1262;37479;-75
2023/01/04 09:15:11;;;;;;;30.30;20.00;;;;;;;3.41;83.58;101379.73;108957;1273;37127;-73
2023/01/04 09:17:43;;;;;;;28.20;20.10;;;;;;;3.65;83.43;101374.38;108927;1254;36696;-73
2023/01/04 09:20:15;;;;;;;30.30;20.70;;;;;;;3.86;83.23;101372.77;108966;1273;37186;-75
2023/01/04 09:22:48;;;;;;;28.70;20.50;;;;;;;4.03;82.28;101356.82;108910;1273;36117;-73
2023/01/04 09:25:20;;;;;;;29.20;20.60;;;;;;;4.14;81.59;101350.99;108953;1257;36116;-76
2023/01/04 09:27:50;;;;;;;31.20;22.00;;;;;;;4.17;81.11;101348.06;108893;1273;36964;-76
2023/01/04 09:30:24;;;;;;;29.20;20.90;;;;;;;4.20;81.00;101343.77;108932;1254;36954;-75
2023/01/04 09:32:56;;;;;;;31.40;21.80;;;;;;;4.23;80.93;101341.70;108933;1250;37081;-76
2023/01/04 09:35:31;;;;;;;30.40;19.70;;;;;;;4.29;80.51;101336.20;108931;1263;37114;-75
2023/01/04 09:38:03;;;;;;;29.30;19.30;;;;;;;4.36;80.76;101333.45;108910;1250;37933;-75
2023/01/04 09:40:40;;;;;;;26.40;19.00;;;;;;;4.46;80.47;101332.27;108843;1254;36298;-77
2023/01/04 09:43:14;;;;;;;27.80;18.00;;;;;;;4.55;79.67;101331.77;108867;1273;36856;-78
2023/01/04 09:45:46;;;;;;;27.20;19.50;;;;;;;4.71;79.33;101321.09;108940;1264;37224;-75
2023/01/04 09:48:19;;;;;;;31.40;19.60;;;;;;;4.82;79.09;101309.16;108821;1254;174860;-73
2023/01/04 09:50:54;;;;;;;27.20;18.60;;;;;;;4.83;78.78;101303.12;108928;1273;37306;-76
2023/01/04 09:53:29;;;;;;;28.10;19.30;;;;;;;4.85;78.73;101302.77;108870;1254;37492;-76
2023/01/04 09:56:09;;;;;;;31.90;20.30;;;;;;;4.88;78.85;101302.77;108993;1262;37217;-76
2023/01/04 09:58:47;;;;;;;32.90;21.20;;;;;;;4.85;78.11;101293.77;108886;1255;37717;-76
2023/01/04 10:01:22;;;;;;;26.90;19.10;;;;;;;4.80;77.90;101285.13;108846;1255;38447;-73
2023/01/04 10:03:59;;;;;;;28.30;18.90;;;;;;;4.78;77.95;101284.27;108901;1254;36751;-75
2023/01/04 10:06:30;;;;;;;31.00;18.30;;;;;;;4.82;78.00;101280.98;108811;1255;174825;-72
2023/01/04 10:09:06;;;;;;;26.40;17.90;;;;;;;4.88;78.19;101276.14;108898;1258;37055;-76
2023/01/04 10:12:05;;;;;;;27.80;17.80;;;;;;;4.91;78.08;101267.32;108223;1251;909097;-76
2023/01/04 10:14:48;;;;;;;24.60;18.20;;;;;;;4.95;77.80;101261.98;108909;1267;36997;-72
2023/01/04 10:17:29;;;;;;;31.70;18.70;;;;;;;4.96;77.54;101250.20;108947;1273;37018;-73
2023/01/04 10:20:23;;;;;;;25.00;17.80;;;;;;;4.98;77.67;101241.05;108979;1251;37193;-75
2023/01/04 10:22:58;;;;;;;28.70;18.70;;;;;;;4.98;77.11;101235.16;108970;1254;37121;-74
2023/01/04 10:25:33;;;;;;;26.60;17.40;;;;;;;5.00;77.54;101225.98;108928;1254;37298;-73
2023/01/04 10:28:24;;;;;;;24.70;16.30;;;;;;;5.04;77.41;101215.95;108917;1273;36436;-73
2023/01/04 10:31:04;;;;;;;24.00;16.60;;;;;;;5.14;77.19;101202.61;108956;1254;36190;-75
2023/01/04 10:33:41;;;;;;;22.70;15.70;;;;;;;5.25;77.12;101187.71;108963;1255;36715;-76
2023/01/04 10:36:21;;;;;;;23.10;15.80;;;;;;;5.33;77.10;101172.46;108907;1262;38264;-76
2023/01/04 10:39:00;;;;;;;21.50;15.80;;;;;;;5.38;76.60;101153.59;108946;1270;37534;-74
2023/01/04 10:41:37;;;;;;;23.70;15.00;;;;;;;5.39;75.76;101137.84;108913;1273;36990;-75
2023/01/04 10:44:12;;;;;;;22.60;15.50;;;;;;;5.37;76.02;101120.89;108896;1254;37129;-75
2023/01/04 10:46:46;;;;;;;24.00;15.50;;;;;;;5.39;75.58;101112.92;108916;1254;37096;-75
2023/01/04 10:49:20;;;;;;;22.30;14.90;;;;;;;5.40;75.57;101103.73;108946;1273;37332;-74
2023/01/04 10:51:55;;;;;;;21.80;13.20;;;;;;;5.40;75.24;101095.27;108902;1254;37016;-73
2023/01/04 10:54:33;;;;;;;20.90;13.00;;;;;;;5.42;75.33;101091.11;108971;1256;37015;-75
2023/01/04 10:57:09;;;;;;;18.40;12.50;;;;;;;5.46;74.95;101084.15;108206;1262;909768;-74
2023/01/04 10:59:43;;;;;;;20.00;13.50;;;;;;;5.47;74.30;101078.79;108956;1253;37288;-74
2023/01/04 11:02:22;;;;;;;19.60;13.80;;;;;;;5.48;74.54;101069.62;108965;1254;37599;-74
2023/01/04 11:05:00;;;;;;;20.40;14.90;;;;;;;5.50;74.80;101065.27;108900;1264;36401;-74
2023/01/04 11:07:47;;;;;;;23.10;15.00;;;;;;;5.51;74.35;101065.96;108991;1251;37060;-75
2023/01/04 11:10:22;;;;;;;21.80;15.00;;;;;;;5.49;74.21;101062.86;108965;1250;37071;-74
2023/01/04 11:12:54;;;;;;;20.30;14.30;;;;;;;5.46;74.26;101059.40;108912;1254;40114;-75
2023/01/04 11:15:31;;;;;;;22.40;13.60;;;;;;;5.47;74.41;101064.27;108901;1254;36448;-74
2023/01/04 11:18:05;;;;;;;21.00;13.30;;;;;;;5.49;73.99;101057.33;108934;1251;37019;-75
2023/01/04 11:20:39;;;;;;;18.80;13.30;;;;;;;5.50;74.02;101052.11;108902;1263;36942;-74
2023/01/04 11:23:14;;;;;;;19.00;13.80;;;;;;;5.54;74.34;101043.79;108936;1254;37064;-74
2023/01/04 11:25:53;;;;;;;21.80;14.40;;;;;;;5.56;73.95;101033.20;108948;1254;36964;-77
2023/01/04 11:28:31;;;;;;;19.60;13.70;;;;;;;5.57;74.00;101027.52;108938;1254;36962;-76
2023/01/04 11:31:17;;;;;;;20.80;14.70;;;;;;;5.56;74.07;101017.48;108938;1254;36226;-73
2023/01/04 11:33:58;;;;;;;20.30;14.00;;;;;;;5.53;73.72;101007.45;108920;1258;37025;-77
2023/01/04 11:36:39;;;;;;;24.70;14.10;;;;;;;5.51;73.54;100995.88;108892;1255;37170;-74
2023/01/04 11:39:21;;;;;;;19.30;13.90;;;;;;;5.47;73.33;100989.84;108945;1257;36981;-75
2023/01/04 11:42:07;;;;;;;24.40;15.10;;;;;;;5.43;73.35;100980.88;108930;1256;37116;-74
2023/01/04 11:44:40;;;;;;;25.80;16.00;;;;;;;5.39;73.61;100968.45;108947;1254;37063;-76
2023/01/04 11:47:23;;;;;;;21.90;15.30;;;;;;;5.36;73.53;100957.73;108986;1254;37141;-74
2023/01/04 11:49:55;;;;;;;25.20;16.70;;;;;;;5.35;73.90;100949.27;108946;1254;36548;-75
2023/01/04 11:52:33;;;;;;;24.70;16.20;;;;;;;5.32;73.74;100942.90;108979;1255;37657;-75
2023/01/04 11:55:25;;;;;;;23.30;14.40;;;;;;;5.28;73.78;100926.14;108960;1250;37152;-74
2023/01/04 11:58:15;;;;;;;21.90;15.60;;;;;;;5.26;74.19;100908.69;108984;1273;36997;-74
2023/01/04 12:00:55;;;;;;;25.80;15.80;;;;;;;5.24;73.89;100900.06;109042;1250;37598;-77
2023/01/04 12:03:31;;;;;;;24.80;16.60;;;;;;;5.24;74.12;100893.84;108956;1273;38313;-77
2023/01/04 12:06:07;;;;;;;22.80;15.30;;;;;;;5.21;74.04;100887.98;108947;1262;37041;-75
2023/01/04 12:08:42;;;;;;;25.20;17.20;;;;;;;5.17;74.25;100881.60;108962;1269;38261;-73
2023/01/04 12:11:23;;;;;;;24.60;16.10;;;;;;;5.15;74.38;100880.58;108463;1250;599697;-76
2023/01/04 12:13:54;;;;;;;21.60;15.20;;;;;;;5.13;74.32;100872.98;108947;1257;36961;-75
2023/01/04 12:16:41;;;;;;;23.90;15.00;;;;;;;5.15;74.61;100870.55;108909;1273;37193;-74
2023/01/04 12:19:15;;;;;;;23.20;16.00;;;;;;;5.19;74.75;100870.17;108963;1262;36083;-75
2023/01/04 12:21:48;;;;;;;23.80;15.30;;;;;;;5.21;74.50;100866.86;108822;1262;37162;-74
2023/01/04 12:24:22;;;;;;;24.80;16.50;;;;;;;5.23;74.57;100857.69;108926;1265;37089;-74
2023/01/04 12:26:57;;;;;;;24.00;16.60;;;;;;;5.25;74.47;100852.30;108912;1273;36974;-73
2023/01/04 12:29:58;;;;;;;23.00;16.70;;;;;;;5.25;74.81;100842.78;108948;1251;37419;-75
2023/01/04 12:32:51;;;;;;;22.10;14.80;;;;;;;5.27;74.63;100831.88;108951;1250;37038;-75
2023/01/04 12:36:06;;;;;;;22.20;15.60;;;;;;;5.30;74.51;100820.60;108906;1273;36571;-78
2023/01/04 12:39:28;;;;;;;23.50;16.40;;;;;;;5.30;74.47;100813.85;108957;1265;37045;-75
2023/01/04 12:42:25;;;;;;;23.90;16.30;;;;;;;5.31;74.56;100816.44;108946;1262;38132;-76
2023/01/04 12:45:15;;;;;;;28.60;17.90;;;;;;;5.32;74.55;100819.04;108893;1273;36454;-74